createdAt,value
2023-10-30T00:00:49.107Z,8.20
2023-10-30T00:03:16.956Z,8.10
2023-10-30T00:05:44.679Z,8.00
2023-10-30T00:08:11.894Z,8.00
2023-10-30T00:10:39.285Z,8.20
2023-10-30T00:13:06.706Z,8.20
2023-10-30T00:15:34.069Z,8.10
2023-10-30T00:18:01.572Z,8.00
2023-10-30T00:20:28.859Z,7.90
2023-10-30T00:22:56.192Z,7.90
2023-10-30T00:25:23.646Z,7.80
2023-10-30T00:27:50.939Z,8.10
2023-10-30T00:30:19.529Z,8.00
2023-10-30T00:32:47.334Z,8.00
2023-10-30T00:35:14.798Z,8.10
2023-10-30T00:37:42.349Z,8.20
2023-10-30T00:40:10.060Z,8.10
2023-10-30T00:42:37.420Z,7.90
2023-10-30T00:45:05.878Z,7.80
2023-10-30T00:47:33.999Z,7.70
2023-10-30T00:50:01.319Z,7.90
2023-10-30T00:52:28.610Z,8.00
2023-10-30T00:54:55.905Z,8.10
2023-10-30T00:57:24.101Z,8.20
2023-10-30T00:59:51.887Z,8.00
2023-10-30T01:02:19.385Z,7.70
2023-10-30T01:04:47.444Z,7.90
2023-10-30T01:07:15.777Z,8.10
2023-10-30T01:09:44.809Z,7.90
2023-10-30T01:12:12.609Z,7.90
2023-10-30T01:14:41.729Z,7.90
2023-10-30T01:17:10.070Z,8.00
2023-10-30T01:19:37.359Z,7.80
2023-10-30T01:22:04.681Z,8.00
2023-10-30T01:24:32.142Z,8.00
2023-10-30T01:26:59.747Z,7.80
2023-10-30T01:29:27.145Z,8.00
2023-10-30T01:31:54.529Z,8.10
2023-10-30T01:34:22.100Z,8.00
2023-10-30T01:36:49.547Z,8.00
2023-10-30T01:39:16.806Z,7.90
2023-10-30T01:41:45.250Z,7.70
2023-10-30T01:44:12.701Z,7.70
2023-10-30T01:46:40.104Z,7.90
2023-10-30T01:49:07.575Z,8.10
2023-10-30T01:51:35.073Z,8.00
2023-10-30T01:54:03.901Z,8.00
2023-10-30T01:56:33.467Z,8.10
2023-10-30T01:59:01.793Z,8.10
2023-10-30T02:01:31.078Z,8.20
2023-10-30T02:03:59.585Z,8.20
2023-10-30T02:06:27.050Z,8.10
2023-10-30T02:08:54.593Z,8.10
2023-10-30T02:11:21.948Z,8.20
2023-10-30T02:13:58.510Z,8.30
2023-10-30T02:16:26.286Z,8.30
2023-10-30T02:18:53.734Z,8.20
2023-10-30T02:21:22.256Z,8.10
2023-10-30T02:23:49.545Z,8.20
2023-10-30T02:26:16.835Z,8.30
2023-10-30T02:28:44.047Z,8.30
2023-10-30T02:31:11.525Z,8.30
2023-10-30T02:33:38.854Z,8.20
2023-10-30T02:36:07.507Z,8.20
2023-10-30T02:38:34.939Z,8.10
2023-10-30T02:41:02.476Z,8.00
2023-10-30T02:43:30.519Z,8.00
2023-10-30T02:45:57.906Z,8.30
2023-10-30T02:48:25.273Z,8.10
2023-10-30T02:50:53.006Z,8.00
2023-10-30T02:53:20.197Z,8.00
2023-10-30T02:55:47.440Z,8.00
2023-10-30T02:58:14.789Z,8.10
2023-10-30T03:00:42.089Z,8.00
2023-10-30T03:03:11.167Z,8.00
2023-10-30T03:05:39.118Z,8.10
2023-10-30T03:08:06.543Z,8.10
2023-10-30T03:10:34.520Z,8.10
2023-10-30T03:13:01.896Z,8.10
2023-10-30T03:15:29.401Z,8.10
2023-10-30T03:17:56.874Z,8.10
2023-10-30T03:20:24.450Z,8.00
2023-10-30T03:22:53.989Z,8.00
2023-10-30T03:25:21.485Z,8.00
2023-10-30T03:27:48.829Z,7.90
2023-10-30T03:30:17.579Z,8.00
2023-10-30T03:32:44.902Z,8.00
2023-10-30T03:35:12.305Z,7.80
2023-10-30T03:37:39.640Z,7.80
2023-10-30T03:40:08.395Z,8.10
2023-10-30T03:42:35.661Z,8.00
2023-10-30T03:45:03.112Z,8.10
2023-10-30T03:47:30.883Z,8.10
2023-10-30T03:49:58.212Z,8.00
2023-10-30T03:52:25.570Z,7.90
2023-10-30T03:54:52.803Z,8.00
2023-10-30T03:57:20.050Z,8.10
2023-10-30T03:59:47.683Z,8.10
2023-10-30T04:02:15.317Z,8.10
2023-10-30T04:04:43.126Z,8.10
2023-10-30T04:07:10.482Z,8.20
2023-10-30T04:09:37.890Z,8.10
2023-10-30T04:12:06.297Z,8.00
2023-10-30T04:14:33.817Z,7.90
2023-10-30T04:17:04.597Z,7.90
2023-10-30T04:19:32.392Z,8.10
2023-10-30T04:21:59.701Z,8.10
2023-10-30T04:24:27.058Z,8.20
2023-10-30T04:26:54.570Z,8.20
2023-10-30T04:29:21.989Z,8.20
2023-10-30T04:31:49.352Z,8.10
2023-10-30T04:34:16.671Z,8.20
2023-10-30T04:36:44.091Z,8.10
2023-10-30T04:39:12.364Z,8.10
2023-10-30T04:41:39.779Z,8.20
2023-10-30T04:44:07.960Z,8.20
2023-10-30T04:46:35.861Z,8.10
2023-10-30T04:49:03.105Z,7.90
2023-10-30T04:51:30.620Z,8.10
2023-10-30T04:53:58.110Z,8.10
2023-10-30T04:56:25.562Z,8.20
2023-10-30T04:58:52.822Z,8.30
2023-10-30T05:01:20.212Z,8.00
2023-10-30T05:03:47.743Z,8.10
2023-10-30T05:06:15.533Z,7.90
2023-10-30T05:08:42.773Z,8.00
2023-10-30T05:11:10.185Z,8.00
2023-10-30T05:13:37.437Z,7.90
2023-10-30T05:16:05.542Z,7.80
2023-10-30T05:18:32.963Z,7.80
2023-10-30T05:21:00.253Z,7.80
2023-10-30T05:23:27.537Z,7.70
2023-10-30T05:25:55.589Z,7.50
2023-10-30T05:28:25.978Z,7.60
2023-10-30T05:30:56.197Z,7.80
2023-10-30T05:33:23.800Z,7.90
2023-10-30T05:35:54.498Z,7.60
2023-10-30T05:38:23.976Z,7.40
2023-10-30T05:40:51.251Z,7.50
2023-10-30T05:43:18.593Z,7.50
2023-10-30T05:45:49.121Z,7.60
2023-10-30T05:48:17.956Z,7.70
2023-10-30T05:50:45.172Z,7.90
2023-10-30T05:53:12.882Z,7.80
2023-10-30T05:55:40.139Z,7.70
2023-10-30T05:58:07.831Z,7.90
2023-10-30T06:00:35.159Z,7.90
2023-10-30T06:03:02.528Z,7.90
2023-10-30T06:05:29.936Z,7.80
2023-10-30T06:07:57.649Z,7.70
2023-10-30T06:10:25.013Z,8.10
2023-10-30T06:12:52.537Z,8.20
2023-10-30T06:15:19.914Z,8.30
2023-10-30T06:17:48.556Z,8.20
2023-10-30T06:20:15.825Z,8.20
2023-10-30T06:22:43.424Z,8.20
2023-10-30T06:25:10.930Z,8.20
2023-10-30T06:27:41.530Z,8.30
2023-10-30T06:30:11.162Z,8.30
2023-10-30T06:32:38.511Z,8.30
2023-10-30T06:35:08.635Z,8.30
2023-10-30T06:37:36.229Z,8.40
2023-10-30T06:40:04.708Z,8.40
2023-10-30T06:42:32.311Z,8.40
2023-10-30T06:44:59.570Z,8.50
2023-10-30T06:47:28.753Z,8.50
2023-10-30T06:49:56.097Z,8.50
2023-10-30T06:52:24.304Z,8.50
2023-10-30T06:54:53.186Z,8.60
2023-10-30T06:57:20.596Z,8.70
2023-10-30T06:59:47.984Z,8.70
2023-10-30T07:02:15.204Z,8.70
2023-10-30T07:04:42.587Z,8.60
2023-10-30T07:07:10.030Z,8.60
2023-10-30T07:09:37.491Z,8.60
2023-10-30T07:12:05.245Z,8.70
2023-10-30T07:14:34.192Z,8.70
